Terminal Aerodrome Forecast
Issued by NWS Wilmington, OH

Current Version | Previous Version | Text Only | Print | Product List | Glossary Off
Versions: 1 2 3 4 5 6 7 8 9 10 11 12 13 14 15

000
FTUS41 KILN 281100
TAFDAY
TAF
KDAY 281132Z 2812/2912 01005KT P6SM SCT250
     FM281300 06007KT P6SM FEW025 SCT070
     FM282300 07005KT P6SM SCT080
     FM290900 11005KT P6SM BKN200=

USA.gov is the U.S. government's official web portal to all federal, state and local government web resources and services.